Spaceon02064 — ASD — position and weather

sailwx.info

Track history (hours):
 
Tides and Currents Weather Stations Pressure Air Temp Water Temp Dewpoint Dewpoint Depression Visibility Wind Speed Wind Dir Waves Ship Positions

Spaceon02064

Last reported at 2016-May-04 10:23 UTC. Time now 2016-May-04 13:32 UTC.
Position N 21°18' E 110°25'.

Length 6 m.

Type: Ship. MMSI: 200902064.

Date/timePositionNaut miles runAvg speedWind from/ knotsBaromVisibWave heightAir tempDewpointWater temp
2016-May-04 10:23N 21°18' E 110°25'85096.1
2016-May-04 01:33N 31°24' E 121°31'85 6.4
2016-May-03 12:19N 30°03' E 121°59'6 8.4
2016-May-03 11:33N 29°58' E 122°04'8 8.3
2016-May-03 10:33N 29°50' E 122°07'8132845.4
2016-May-03 10:15N 21°18' E 110°25'81658.6
2016-May-02 20:21N 29°58' E 122°03'5 6.6
2016-May-02 19:32N 29°55' E 122°08'6 6.1
2016-May-02 18:33N 29°49' E 122°06'812100.0
2016-May-02 10:26N 21°18' E 110°25'82639.3
2016-May-01 13:25N 31°57' E 120°12'3 3.3
2016-May-01 12:30N 31°57' E 120°16'4 3.4
2016-May-01 11:27N 31°58' E 120°20'832882.3
2016-May-01 10:30N 21°18' E 110°25'849166.8
2016-May-01 05:24N 31°23' E 121°31'849762.7
2016-May-01 04:18N 21°18' E 110°25'0 0.0
2016-May-01 03:32N 21°18' E 110°25'8281870.6
2016-May-01 03:06N 30°59' E 121°22'3 5.4
2016-May-01 02:33N 30°59' E 121°19'28229.2
2016-May-01 02:26N 31°25' E 121°31'85010237.0
2016-May-01 02:21N 21°18' E 110°25'807118.8
2016-Apr-30 19:33N 29°44' E 122°03'5 5.2
2016-Apr-30 18:32N 29°49' E 122°05'5 5.2
2016-Apr-30 17:30N 29°53' E 122°09'5 4.9
2016-Apr-30 16:32N 29°56' E 122°04'6 6.2
2016-Apr-30 15:30N 30°01' E 121°60'6 6.4
2016-Apr-30 14:32N 30°07' E 121°57'32 6.2
2016-Apr-30 09:25N 30°39' E 121°52'5 5.9
2016-Apr-30 08:33N 30°43' E 121°56'37 5.1
2016-Apr-30 01:24N 31°17' E 121°44'7 8.0
2016-Apr-30 00:32N 31°22' E 121°37'317512.5
2016-Apr-30 00:32N 30°58' E 121°14'2828.8
2016-Apr-29 23:33N 31°23' E 121°30'25467.7
2016-Apr-29 23:29N 30°59' E 121°20'5 5.7
2016-Apr-29 22:33N 31°00' E 121°26'19 9.3
2016-Apr-29 20:28N 31°19' E 121°33'6 6.1
2016-Apr-29 19:33N 31°14' E 121°29'616.1
2016-Apr-29 19:12N 31°19' E 121°33'1 0.8
2016-Apr-29 18:26N 31°19' E 121°33'3 2.9
2016-Apr-29 17:18N 31°21' E 121°30'2 1.1
2016-Apr-29 15:29N 31°20' E 121°32'1514.2
2016-Apr-29 14:26N 31°32' E 121°21'1516.7
2016-Apr-29 13:32N 31°20' E 121°32'2285.3
2016-Apr-29 13:17N 31°37' E 121°16'2229.1
2016-Apr-29 12:32N 31°20' E 121°32'6 6.3
2016-Apr-29 11:33N 31°26' E 121°29'651.7
2016-Apr-29 11:26N 31°20' E 121°32'848965.9
2016-Apr-29 10:33N 21°18' E 110°25'84816159.7
2016-Apr-29 10:30N 31°20' E 121°32'0 0.0
2016-Apr-29 09:14N 31°20' E 121°32'0 0.0
2016-Apr-29 08:32N 31°20' E 121°32'0 0.0
2016-Apr-29 07:32N 31°20' E 121°32'0 0.0
2016-Apr-29 06:34N 31°20' E 121°32'0 0.0
2016-Apr-29 05:23N 31°20' E 121°32'0 0.1
2016-Apr-29 04:20N 31°20' E 121°32'2714.5
2016-Apr-29 02:28N 31°40' E 121°11'0 0.0
2016-Apr-29 01:24N 31°40' E 121°11'2933.2
2016-Apr-29 00:32N 31°19' E 121°33'2 1.7
2016-Apr-28 23:33N 31°20' E 121°32'0 0.0
2016-Apr-28 22:33N 31°20' E 121°32'0 0.0
2016-Apr-28 21:32N 31°20' E 121°32'0 0.0
2016-Apr-28 20:32N 31°20' E 121°32'0 0.0
2016-Apr-28 19:31N 31°20' E 121°32'0 0.0
2016-Apr-28 18:30N 31°20' E 121°32'0 0.0
2016-Apr-28 17:30N 31°20' E 121°32'0 0.0
2016-Apr-28 16:24N 31°20' E 121°32'0 0.0
2016-Apr-28 15:30N 31°20' E 121°32'0 0.0
2016-Apr-28 14:24N 31°20' E 121°32'0 0.0
2016-Apr-28 13:25N 31°20' E 121°32'0 0.0
2016-Apr-28 12:31N 31°20' E 121°32'0 0.0
2016-Apr-28 11:28N 31°20' E 121°32'0 0.0
2016-Apr-28 10:33N 31°20' E 121°32'0 0.0
2016-Apr-28 09:33N 31°20' E 121°32'0 0.0
2016-Apr-28 08:33N 31°20' E 121°32'0 0.0
2016-Apr-28 07:33N 31°20' E 121°32'0 0.0
2016-Apr-28 06:28N 31°20' E 121°32'0 0.0
2016-Apr-28 05:28N 31°20' E 121°32'0 0.1
2016-Apr-28 04:33N 31°20' E 121°32'0 0.0
2016-Apr-28 03:17N 31°20' E 121°32'0 0.0
2016-Apr-28 02:20N 31°20' E 121°32'0 0.0
2016-Apr-28 01:33N 31°20' E 121°32'0 0.0
2016-Apr-28 00:33N 31°20' E 121°32'0 0.0
2016-Apr-27 23:33N 31°20' E 121°32'0 0.0
2016-Apr-27 22:32N 31°20' E 121°32'0 0.0
2016-Apr-27 21:17N 31°20' E 121°32'0 0.0
2016-Apr-27 20:32N 31°20' E 121°32'0 0.0
2016-Apr-27 19:33N 31°20' E 121°32'0 0.0
2016-Apr-27 18:32N 31°20' E 121°32'0 0.0
2016-Apr-27 17:32N 31°20' E 121°32'0 0.0
2016-Apr-27 16:25N 31°20' E 121°32'0 0.0
2016-Apr-27 15:32N 31°20' E 121°32'0 0.0
2016-Apr-27 14:32N 31°20' E 121°32'0 0.0
2016-Apr-27 12:27N 31°20' E 121°32'8485229.8
2016-Apr-27 12:18N 21°18' E 110°25'848976.1
2016-Apr-27 11:26N 31°20' E 121°32'0 0.0
2016-Apr-27 10:33N 31°20' E 121°32'84811270.1
2016-Apr-27 10:29N 21°18' E 110°25'848912.2
2016-Apr-27 09:33N 31°20' E 121°32'0 0.1
2016-Apr-27 08:33N 31°21' E 121°32'44138.9
2016-Apr-26 21:14N 24°32' E 118°25'3 4.8
2016-Apr-26 20:33N 24°30' E 118°22'0 0.2
2016-Apr-26 19:31N 24°31' E 118°22'0 0.1
2016-Apr-26 17:31N 24°31' E 118°22'447111.6
2016-Apr-26 13:30N 31°26' E 121°29'10 8.9
2016-Apr-26 12:26N 31°32' E 121°20'8 9.1
2016-Apr-26 11:33N 31°38' E 121°14'66581.1
2016-Apr-26 03:21N 23°02' E 113°23'66955.3
2016-Apr-25 15:15N 31°02' E 122°06'43 5.3
2016-Apr-25 07:09N 30°22' E 121°48'20 7.3
2016-Apr-25 04:23N 30°03' E 121°56'7 8.4
2016-Apr-25 03:32N 29°57' E 122°00'8 8.1
2016-Apr-25 02:33N 29°53' E 122°09'  
Track history (hours):
 
Tides and Currents Weather Stations Pressure Air Temp Water Temp Dewpoint Dewpoint Depression Visibility Wind Speed Wind Dir Waves Ship Positions

Spaceon02064

Last reported at 2016-May-04 10:23 UTC. Time now 2016-May-04 13:32 UTC.
Position N 21°18' E 110°25'.

Length 6 m.

Type: Ship. MMSI: 200902064.

Date/timePositionNaut miles runAvg speedWind from/ knotsBaromVisibWave heightAir tempDewpointWater temp
2016-May-04 10:23N 21°18' E 110°25'85096.1
2016-May-04 01:33N 31°24' E 121°31'85 6.4
2016-May-03 12:19N 30°03' E 121°59'6 8.4
2016-May-03 11:33N 29°58' E 122°04'8 8.3
2016-May-03 10:33N 29°50' E 122°07'8132845.4
2016-May-03 10:15N 21°18' E 110°25'81658.6
2016-May-02 20:21N 29°58' E 122°03'5 6.6
2016-May-02 19:32N 29°55' E 122°08'6 6.1
2016-May-02 18:33N 29°49' E 122°06'812100.0
2016-May-02 10:26N 21°18' E 110°25'82639.3
2016-May-01 13:25N 31°57' E 120°12'3 3.3
2016-May-01 12:30N 31°57' E 120°16'4 3.4
2016-May-01 11:27N 31°58' E 120°20'832882.3
2016-May-01 10:30N 21°18' E 110°25'849166.8
2016-May-01 05:24N 31°23' E 121°31'849762.7
2016-May-01 04:18N 21°18' E 110°25'0 0.0
2016-May-01 03:32N 21°18' E 110°25'8281870.6
2016-May-01 03:06N 30°59' E 121°22'3 5.4
2016-May-01 02:33N 30°59' E 121°19'28229.2
2016-May-01 02:26N 31°25' E 121°31'85010237.0
2016-May-01 02:21N 21°18' E 110°25'807118.8
2016-Apr-30 19:33N 29°44' E 122°03'5 5.2
2016-Apr-30 18:32N 29°49' E 122°05'5 5.2
2016-Apr-30 17:30N 29°53' E 122°09'5 4.9
2016-Apr-30 16:32N 29°56' E 122°04'6 6.2
2016-Apr-30 15:30N 30°01' E 121°60'6 6.4
2016-Apr-30 14:32N 30°07' E 121°57'32 6.2
2016-Apr-30 09:25N 30°39' E 121°52'5 5.9
2016-Apr-30 08:33N 30°43' E 121°56'37 5.1
2016-Apr-30 01:24N 31°17' E 121°44'7 8.0
2016-Apr-30 00:32N 31°22' E 121°37'317512.5
2016-Apr-30 00:32N 30°58' E 121°14'2828.8
2016-Apr-29 23:33N 31°23' E 121°30'25467.7
2016-Apr-29 23:29N 30°59' E 121°20'5 5.7
2016-Apr-29 22:33N 31°00' E 121°26'19 9.3
2016-Apr-29 20:28N 31°19' E 121°33'6 6.1
2016-Apr-29 19:33N 31°14' E 121°29'616.1
2016-Apr-29 19:12N 31°19' E 121°33'1 0.8
2016-Apr-29 18:26N 31°19' E 121°33'3 2.9
2016-Apr-29 17:18N 31°21' E 121°30'2 1.1
2016-Apr-29 15:29N 31°20' E 121°32'1514.2
2016-Apr-29 14:26N 31°32' E 121°21'1516.7
2016-Apr-29 13:32N 31°20' E 121°32'2285.3
2016-Apr-29 13:17N 31°37' E 121°16'2229.1
2016-Apr-29 12:32N 31°20' E 121°32'6 6.3
2016-Apr-29 11:33N 31°26' E 121°29'651.7
2016-Apr-29 11:26N 31°20' E 121°32'848965.9
2016-Apr-29 10:33N 21°18' E 110°25'84816159.7
2016-Apr-29 10:30N 31°20' E 121°32'0 0.0
2016-Apr-29 09:14N 31°20' E 121°32'0 0.0
2016-Apr-29 08:32N 31°20' E 121°32'0 0.0
2016-Apr-29 07:32N 31°20' E 121°32'0 0.0
2016-Apr-29 06:34N 31°20' E 121°32'0 0.0
2016-Apr-29 05:23N 31°20' E 121°32'0 0.1
2016-Apr-29 04:20N 31°20' E 121°32'2714.5
2016-Apr-29 02:28N 31°40' E 121°11'0 0.0
2016-Apr-29 01:24N 31°40' E 121°11'2933.2
2016-Apr-29 00:32N 31°19' E 121°33'2 1.7
2016-Apr-28 23:33N 31°20' E 121°32'0 0.0
2016-Apr-28 22:33N 31°20' E 121°32'0 0.0
2016-Apr-28 21:32N 31°20' E 121°32'0 0.0
2016-Apr-28 20:32N 31°20' E 121°32'0 0.0
2016-Apr-28 19:31N 31°20' E 121°32'0 0.0
2016-Apr-28 18:30N 31°20' E 121°32'0 0.0
2016-Apr-28 17:30N 31°20' E 121°32'0 0.0
2016-Apr-28 16:24N 31°20' E 121°32'0 0.0
2016-Apr-28 15:30N 31°20' E 121°32'0 0.0
2016-Apr-28 14:24N 31°20' E 121°32'0 0.0
2016-Apr-28 13:25N 31°20' E 121°32'0 0.0
2016-Apr-28 12:31N 31°20' E 121°32'0 0.0
2016-Apr-28 11:28N 31°20' E 121°32'0 0.0
2016-Apr-28 10:33N 31°20' E 121°32'0 0.0
2016-Apr-28 09:33N 31°20' E 121°32'0 0.0
2016-Apr-28 08:33N 31°20' E 121°32'0 0.0
2016-Apr-28 07:33N 31°20' E 121°32'0 0.0
2016-Apr-28 06:28N 31°20' E 121°32'0 0.0
2016-Apr-28 05:28N 31°20' E 121°32'0 0.1
2016-Apr-28 04:33N 31°20' E 121°32'0 0.0
2016-Apr-28 03:17N 31°20' E 121°32'0 0.0
2016-Apr-28 02:20N 31°20' E 121°32'0 0.0
2016-Apr-28 01:33N 31°20' E 121°32'0 0.0
2016-Apr-28 00:33N 31°20' E 121°32'0 0.0
2016-Apr-27 23:33N 31°20' E 121°32'0 0.0
2016-Apr-27 22:32N 31°20' E 121°32'0 0.0
2016-Apr-27 21:17N 31°20' E 121°32'0 0.0
2016-Apr-27 20:32N 31°20' E 121°32'0 0.0
2016-Apr-27 19:33N 31°20' E 121°32'0 0.0
2016-Apr-27 18:32N 31°20' E 121°32'0 0.0
2016-Apr-27 17:32N 31°20' E 121°32'0 0.0
2016-Apr-27 16:25N 31°20' E 121°32'0 0.0
2016-Apr-27 15:32N 31°20' E 121°32'0 0.0
2016-Apr-27 14:32N 31°20' E 121°32'0 0.0
2016-Apr-27 12:27N 31°20' E 121°32'8485229.8
2016-Apr-27 12:18N 21°18' E 110°25'848976.1
2016-Apr-27 11:26N 31°20' E 121°32'0 0.0
2016-Apr-27 10:33N 31°20' E 121°32'84811270.1
2016-Apr-27 10:29N 21°18' E 110°25'848912.2
2016-Apr-27 09:33N 31°20' E 121°32'0 0.1
2016-Apr-27 08:33N 31°21' E 121°32'44138.9
2016-Apr-26 21:14N 24°32' E 118°25'3 4.8
2016-Apr-26 20:33N 24°30' E 118°22'0 0.2
2016-Apr-26 19:31N 24°31' E 118°22'0 0.1
2016-Apr-26 17:31N 24°31' E 118°22'447111.6
2016-Apr-26 13:30N 31°26' E 121°29'10 8.9
2016-Apr-26 12:26N 31°32' E 121°20'8 9.1
2016-Apr-26 11:33N 31°38' E 121°14'66581.1
2016-Apr-26 03:21N 23°02' E 113°23'66955.3
2016-Apr-25 15:15N 31°02' E 122°06'43 5.3
2016-Apr-25 07:09N 30°22' E 121°48'20 7.3
2016-Apr-25 04:23N 30°03' E 121°56'7 8.4
2016-Apr-25 03:32N 29°57' E 122°00'8 8.1
2016-Apr-25 02:33N 29°53' E 122°09'  

Dump ship's entire track history